createdAt,value
2022-09-15T00:00:43.672Z,76.98
2022-09-15T00:02:46.062Z,76.83
2022-09-15T00:04:47.576Z,76.04
2022-09-15T00:06:49.264Z,74.67
2022-09-15T00:08:50.725Z,73.39
2022-09-15T00:10:55.607Z,72.49
2022-09-15T00:12:57.046Z,71.53
2022-09-15T00:14:58.715Z,70.99
2022-09-15T00:17:00.245Z,71.30
2022-09-15T00:19:01.930Z,73.42
2022-09-15T00:21:08.420Z,74.55
2022-09-15T00:23:11.128Z,74.73
2022-09-15T00:25:13.192Z,75.01
2022-09-15T00:27:16.022Z,75.78
2022-09-15T00:29:17.470Z,74.79
2022-09-15T00:31:21.548Z,74.19
2022-09-15T00:33:23.275Z,72.57
2022-09-15T00:35:24.747Z,72.95
2022-09-15T00:37:26.231Z,74.53
2022-09-15T00:39:27.979Z,74.77
2022-09-15T00:41:30.097Z,73.95
2022-09-15T00:43:45.626Z,74.01
2022-09-15T00:45:48.424Z,75.34
2022-09-15T00:47:49.998Z,75.41
2022-09-15T00:49:59.177Z,77.12
2022-09-15T00:52:07.242Z,77.32
2022-09-15T00:54:15.245Z,78.60
2022-09-15T00:56:18.632Z,80.06
2022-09-15T00:58:36.875Z,80.13
2022-09-15T01:00:44.099Z,80.21
2022-09-15T01:02:48.231Z,80.24
2022-09-15T01:04:57.458Z,80.77
2022-09-15T01:07:03.840Z,81.25
2022-09-15T01:09:16.797Z,81.02
2022-09-15T01:11:18.417Z,81.05
2022-09-15T01:13:19.889Z,81.59
2022-09-15T01:15:25.781Z,81.36
2022-09-15T01:17:40.405Z,81.37
2022-09-15T01:20:06.583Z,82.39
2022-09-15T01:22:45.089Z,83.68
2022-09-15T01:25:01.738Z,84.25
2022-09-15T01:27:41.208Z,82.54
2022-09-15T01:30:06.421Z,82.67
2022-09-15T01:33:05.787Z,82.50
2022-09-15T01:35:24.980Z,83.47
2022-09-15T01:37:32.531Z,83.68
2022-09-15T01:39:40.035Z,84.13
2022-09-15T01:41:49.461Z,84.09
2022-09-15T01:43:59.956Z,84.54
2022-09-15T01:46:03.195Z,84.70
2022-09-15T01:48:07.744Z,85.19
2022-09-15T01:50:15.317Z,85.78
2022-09-15T01:52:19.364Z,86.14
2022-09-15T01:54:26.490Z,86.66
2022-09-15T01:56:28.000Z,86.83
2022-09-15T01:58:29.573Z,86.85
2022-09-15T02:00:38.881Z,86.99
2022-09-15T02:02:52.695Z,87.18
2022-09-15T02:05:06.048Z,87.26
2022-09-15T02:07:44.916Z,87.25
2022-09-15T02:10:02.812Z,87.47
2022-09-15T02:12:10.916Z,87.46
2022-09-15T02:14:44.799Z,87.33
2022-09-15T02:16:49.726Z,87.48
2022-09-15T02:19:03.471Z,88.04
2022-09-15T02:21:12.110Z,87.91
2022-09-15T02:23:35.308Z,88.16
2022-09-15T02:25:44.010Z,88.08
2022-09-15T02:27:47.889Z,88.41
2022-09-15T02:29:52.770Z,87.98
2022-09-15T02:31:57.430Z,88.37
2022-09-15T02:34:03.243Z,88.35
2022-09-15T02:36:05.876Z,88.33
2022-09-15T02:38:09.942Z,88.73
2022-09-15T02:40:11.517Z,88.83
2022-09-15T02:42:21.765Z,88.91
2022-09-15T02:44:23.393Z,88.40
2022-09-15T02:46:24.878Z,88.73
2022-09-15T02:48:26.422Z,88.72
2022-09-15T02:50:27.929Z,88.74
2022-09-15T02:52:29.454Z,88.64
2022-09-15T02:54:30.938Z,88.95
2022-09-15T02:56:32.367Z,89.59
2022-09-15T02:58:34.818Z,89.44
2022-09-15T03:00:38.536Z,89.49
2022-09-15T03:02:41.844Z,89.86
2022-09-15T03:04:43.279Z,89.83
2022-09-15T03:06:44.836Z,89.89
2022-09-15T03:08:52.542Z,89.59
2022-09-15T03:10:57.334Z,89.85
2022-09-15T03:12:58.869Z,89.89
2022-09-15T03:15:00.290Z,89.96
2022-09-15T03:17:02.742Z,89.79
2022-09-15T03:19:04.489Z,90.01
2022-09-15T03:21:11.384Z,90.13
2022-09-15T03:23:12.954Z,90.02
2022-09-15T03:25:14.435Z,90.02
2022-09-15T03:27:15.873Z,90.35
2022-09-15T03:29:17.357Z,90.00
2022-09-15T03:31:19.905Z,90.12
2022-09-15T03:33:22.759Z,90.45
2022-09-15T03:35:24.211Z,90.82
2022-09-15T03:37:26.081Z,90.72
2022-09-15T03:39:27.554Z,91.27
2022-09-15T03:41:29.324Z,91.27
2022-09-15T03:43:32.098Z,91.18
2022-09-15T03:45:33.589Z,91.50
2022-09-15T03:47:35.056Z,91.79
2022-09-15T03:49:36.529Z,91.93
2022-09-15T03:51:38.185Z,92.00
2022-09-15T03:53:41.831Z,92.10
2022-09-15T03:55:45.351Z,92.04
2022-09-15T03:57:46.793Z,91.64
2022-09-15T03:59:48.283Z,91.63
2022-09-15T04:01:50.952Z,91.85
2022-09-15T04:03:52.445Z,91.73
2022-09-15T04:05:53.858Z,91.57
2022-09-15T04:07:55.311Z,91.74
2022-09-15T04:09:57.244Z,91.37
2022-09-15T04:11:58.698Z,91.72
2022-09-15T04:14:00.290Z,91.31
2022-09-15T04:16:03.882Z,91.43
2022-09-15T04:18:05.480Z,91.56
2022-09-15T04:20:07.749Z,91.35
2022-09-15T04:22:13.151Z,91.39
2022-09-15T04:24:17.181Z,91.65
2022-09-15T04:26:24.771Z,91.18
2022-09-15T04:28:27.648Z,91.62
2022-09-15T04:30:29.112Z,91.47
2022-09-15T04:32:31.389Z,91.27
2022-09-15T04:34:32.825Z,91.04
2022-09-15T04:36:34.277Z,90.57
2022-09-15T04:38:36.171Z,90.83
2022-09-15T04:40:38.197Z,90.54
2022-09-15T04:42:39.714Z,90.72
2022-09-15T04:44:41.344Z,90.02
2022-09-15T04:46:42.809Z,90.03
2022-09-15T04:48:46.056Z,89.87
2022-09-15T04:50:47.626Z,89.87
2022-09-15T04:52:49.068Z,89.96
2022-09-15T04:54:50.542Z,90.14
2022-09-15T04:56:51.971Z,89.96
2022-09-15T04:59:00.891Z,89.76
2022-09-15T05:01:19.129Z,90.03
2022-09-15T05:03:20.692Z,90.03
2022-09-15T05:05:22.505Z,90.04
2022-09-15T05:07:23.940Z,89.96
2022-09-15T05:09:26.475Z,89.97
2022-09-15T05:11:28.390Z,90.00
2022-09-15T05:13:29.933Z,90.32
2022-09-15T05:15:31.412Z,90.10
2022-09-15T05:17:33.441Z,89.91
2022-09-15T05:19:34.968Z,89.92
2022-09-15T05:21:36.532Z,89.81
2022-09-15T05:23:38.427Z,89.66
2022-09-15T05:25:39.919Z,89.90
2022-09-15T05:27:41.385Z,89.85
2022-09-15T05:29:43.102Z,89.78
2022-09-15T05:31:44.600Z,89.96
2022-09-15T05:33:47.914Z,90.11
2022-09-15T05:35:57.825Z,90.16
2022-09-15T05:37:59.263Z,89.77
2022-09-15T05:40:03.165Z,89.82
2022-09-15T05:42:06.965Z,89.48
2022-09-15T05:44:10.192Z,89.65
2022-09-15T05:46:12.967Z,89.35
2022-09-15T05:48:14.436Z,89.34
2022-09-15T05:50:16.257Z,89.58
2022-09-15T05:52:17.721Z,89.46
2022-09-15T05:54:19.187Z,88.98
2022-09-15T05:56:20.812Z,89.19
2022-09-15T05:58:22.357Z,88.94
2022-09-15T06:00:24.642Z,88.74
2022-09-15T06:02:26.159Z,88.86
2022-09-15T06:04:27.676Z,88.87
2022-09-15T06:06:31.737Z,88.29
2022-09-15T06:08:36.986Z,88.20
2022-09-15T06:10:39.434Z,88.63
2022-09-15T06:12:40.908Z,88.39
2022-09-15T06:14:44.438Z,88.40
2022-09-15T06:16:45.920Z,87.95
2022-09-15T06:18:49.620Z,87.80
2022-09-15T06:20:51.051Z,87.72
2022-09-15T06:22:56.549Z,87.36
2022-09-15T06:24:57.973Z,87.23
2022-09-15T06:26:59.519Z,86.82
2022-09-15T06:29:02.879Z,86.73
2022-09-15T06:31:04.640Z,86.38
2022-09-15T06:33:06.102Z,86.12
2022-09-15T06:35:07.838Z,86.15
2022-09-15T06:37:09.416Z,86.15
2022-09-15T06:39:10.950Z,85.77
2022-09-15T06:41:13.402Z,85.04
2022-09-15T06:43:14.839Z,84.91
2022-09-15T06:45:16.374Z,84.39
2022-09-15T06:47:17.967Z,83.76
2022-09-15T06:49:19.998Z,83.26
2022-09-15T06:51:23.538Z,83.27
2022-09-15T06:53:24.993Z,83.08
2022-09-15T06:55:26.421Z,82.87
2022-09-15T06:57:28.403Z,83.07
2022-09-15T06:59:29.878Z,83.29
2022-09-15T07:01:32.283Z,82.56
2022-09-15T07:03:34.216Z,82.49
2022-09-15T07:05:35.727Z,82.05
2022-09-15T07:07:37.185Z,81.47
2022-09-15T07:09:41.145Z,81.30
2022-09-15T07:11:43.039Z,80.90
2022-09-15T07:13:44.498Z,80.12
2022-09-15T07:15:59.996Z,79.99
2022-09-15T07:18:01.495Z,79.60
2022-09-15T07:20:03.498Z,79.44
2022-09-15T07:22:05.112Z,79.30
2022-09-15T07:24:07.794Z,78.53
2022-09-15T07:26:10.773Z,78.28
2022-09-15T07:28:12.737Z,77.38
2022-09-15T07:30:14.233Z,77.28
2022-09-15T07:32:15.668Z,77.26
2022-09-15T07:34:17.363Z,76.91
2022-09-15T07:36:19.226Z,77.07
2022-09-15T07:38:20.658Z,76.67
2022-09-15T07:40:22.259Z,76.53
2022-09-15T07:42:23.870Z,76.08
2022-09-15T07:44:25.379Z,75.92
2022-09-15T07:46:31.421Z,73.61
2022-09-15T07:48:33.344Z,74.61
2022-09-15T07:50:34.800Z,73.90
2022-09-15T07:52:36.213Z,71.58
2022-09-15T07:54:37.709Z,71.68
2022-09-15T07:56:39.152Z,72.27
2022-09-15T07:58:40.732Z,72.06
2022-09-15T08:00:42.207Z,71.09
2022-09-15T08:02:43.665Z,70.40
2022-09-15T08:04:45.242Z,69.63
2022-09-15T08:06:46.702Z,68.72
2022-09-15T08:08:49.091Z,67.14
2022-09-15T08:10:50.524Z,67.75
2022-09-15T08:12:52.824Z,67.50
2022-09-15T08:14:54.322Z,67.97
2022-09-15T08:16:55.772Z,67.61
2022-09-15T08:18:57.255Z,67.46
2022-09-15T08:20:58.876Z,67.41
2022-09-15T08:23:00.617Z,66.23
2022-09-15T08:25:02.101Z,64.64
2022-09-15T08:27:04.613Z,63.96
2022-09-15T08:29:06.054Z,64.15
2022-09-15T08:31:13.967Z,64.57
2022-09-15T08:33:15.708Z,63.77
2022-09-15T08:35:17.664Z,64.75
2022-09-15T08:37:19.123Z,64.83
2022-09-15T08:39:20.658Z,63.88
2022-09-15T08:41:24.385Z,63.75
2022-09-15T08:43:29.158Z,63.77
2022-09-15T08:45:41.919Z,63.97
2022-09-15T08:47:47.548Z,64.52
2022-09-15T08:49:51.876Z,64.43
2022-09-15T08:51:58.157Z,64.18
2022-09-15T08:54:07.323Z,64.11
2022-09-15T08:56:17.137Z,64.06
2022-09-15T08:58:24.469Z,63.60
2022-09-15T09:00:26.892Z,62.84
2022-09-15T09:02:48.242Z,62.81
2022-09-15T09:05:30.115Z,62.58
2022-09-15T09:07:40.853Z,63.29
2022-09-15T09:09:51.747Z,63.60
2022-09-15T09:12:18.261Z,65.33
2022-09-15T09:14:41.449Z,66.62
2022-09-15T09:16:57.399Z,66.13
2022-09-15T09:19:20.813Z,67.96
2022-09-15T09:21:27.696Z,72.17
2022-09-15T09:23:32.435Z,74.49
2022-09-15T09:25:36.106Z,75.84
2022-09-15T09:27:38.893Z,77.50
2022-09-15T09:29:49.376Z,78.76
2022-09-15T09:31:54.824Z,79.16
2022-09-15T09:34:15.598Z,79.62
2022-09-15T09:36:17.318Z,80.01
2022-09-15T09:38:28.322Z,80.17
2022-09-15T09:40:32.762Z,79.85
2022-09-15T09:42:38.105Z,79.96
2022-09-15T09:44:40.602Z,80.35
2022-09-15T09:46:42.392Z,80.82
2022-09-15T09:49:10.396Z,80.92
2022-09-15T09:51:39.782Z,81.17
2022-09-15T09:53:42.386Z,80.88
2022-09-15T09:55:45.839Z,80.96
2022-09-15T09:57:47.314Z,80.37
2022-09-15T09:59:50.500Z,79.97
2022-09-15T10:02:10.861Z,79.70
2022-09-15T10:04:17.994Z,79.41
2022-09-15T10:06:22.225Z,77.80
2022-09-15T10:08:23.740Z,76.00
2022-09-15T10:10:28.803Z,74.52
2022-09-15T10:12:49.535Z,73.64
2022-09-15T10:14:54.320Z,73.36
2022-09-15T10:17:07.695Z,73.79
2022-09-15T10:19:14.049Z,74.65
2022-09-15T10:21:15.974Z,74.43
2022-09-15T10:23:17.608Z,73.68
2022-09-15T10:25:19.186Z,73.48
2022-09-15T10:27:27.539Z,72.56
2022-09-15T10:29:39.071Z,72.33
2022-09-15T10:31:41.523Z,72.39
2022-09-15T10:33:47.825Z,71.61
2022-09-15T10:35:49.579Z,69.80
2022-09-15T10:38:12.075Z,69.59
2022-09-15T10:40:33.628Z,69.32
2022-09-15T10:42:50.310Z,70.20
2022-09-15T10:45:08.853Z,68.73
2022-09-15T10:47:12.906Z,68.34
2022-09-15T10:49:14.295Z,66.24
2022-09-15T10:51:31.056Z,64.56
2022-09-15T10:54:03.269Z,63.62
2022-09-15T10:56:24.136Z,60.69
2022-09-15T10:58:52.998Z,59.27
2022-09-15T11:01:03.329Z,57.84
2022-09-15T11:03:16.733Z,56.27
2022-09-15T11:05:42.525Z,55.70
2022-09-15T11:08:20.754Z,53.68
2022-09-15T11:10:32.654Z,50.68
2022-09-15T11:12:34.034Z,50.95
2022-09-15T11:15:07.216Z,50.38
2022-09-15T11:17:55.019Z,51.74
2022-09-15T11:20:25.344Z,52.35
2022-09-15T11:22:38.585Z,53.66
2022-09-15T11:25:22.157Z,59.75
2022-09-15T11:27:31.356Z,57.21
2022-09-15T11:30:03.231Z,62.26
2022-09-15T11:32:13.493Z,67.02
2022-09-15T11:34:44.124Z,69.61
2022-09-15T11:37:09.091Z,71.60
2022-09-15T11:39:22.437Z,74.40
2022-09-15T11:41:36.095Z,75.36
2022-09-15T11:43:46.071Z,75.43
2022-09-15T11:45:54.597Z,75.11
2022-09-15T11:48:06.862Z,75.34
2022-09-15T11:50:11.292Z,75.34
2022-09-15T11:52:26.864Z,75.89
2022-09-15T11:54:41.801Z,77.07
2022-09-15T11:56:47.511Z,77.39
2022-09-15T11:59:27.580Z,77.48
2022-09-15T12:01:59.572Z,78.79
2022-09-15T12:04:30.512Z,79.67
2022-09-15T12:06:35.165Z,78.91
2022-09-15T12:08:44.235Z,78.44
2022-09-15T12:10:52.303Z,77.83
2022-09-15T12:12:54.038Z,76.44
2022-09-15T12:14:56.587Z,76.68
2022-09-15T12:16:59.074Z,77.32
2022-09-15T12:19:12.743Z,77.10
2022-09-15T12:21:34.169Z,76.95
2022-09-15T12:23:44.633Z,77.60
2022-09-15T12:26:34.464Z,77.00
2022-09-15T12:28:42.438Z,77.01
2022-09-15T12:30:44.019Z,76.89
2022-09-15T12:32:45.505Z,76.70
2022-09-15T12:34:59.226Z,76.57
2022-09-15T12:37:11.538Z,72.53
2022-09-15T12:39:18.865Z,68.49
2022-09-15T12:41:20.341Z,69.26
2022-09-15T12:43:23.525Z,69.43
2022-09-15T12:45:29.289Z,69.63
2022-09-15T12:47:38.831Z,68.42
2022-09-15T12:49:45.457Z,66.87
2022-09-15T12:51:50.819Z,66.42
2022-09-15T12:53:59.611Z,64.30
2022-09-15T12:56:05.469Z,65.56
2022-09-15T12:58:18.536Z,65.40
2022-09-15T13:00:23.353Z,65.94
2022-09-15T13:02:57.497Z,66.56
2022-09-15T13:04:58.990Z,67.45
2022-09-15T13:07:15.667Z,68.68
2022-09-15T13:09:28.227Z,70.11
2022-09-15T13:11:38.739Z,71.12
2022-09-15T13:13:47.448Z,71.21
2022-09-15T13:15:50.759Z,71.88
2022-09-15T13:17:52.718Z,71.78
2022-09-15T13:19:59.797Z,71.32
2022-09-15T13:22:27.149Z,71.85
2022-09-15T13:24:46.549Z,72.88
2022-09-15T13:26:54.650Z,73.68
2022-09-15T13:28:57.946Z,76.19
2022-09-15T13:31:10.804Z,77.09
2022-09-15T13:39:05.363Z,79.05
2022-09-15T13:41:28.472Z,80.07
2022-09-15T13:43:45.376Z,80.96
2022-09-15T13:46:19.191Z,81.03
2022-09-15T13:48:32.564Z,81.33
2022-09-15T13:50:40.377Z,80.52
2022-09-15T13:52:41.740Z,80.54
2022-09-15T13:55:12.317Z,80.05
2022-09-15T13:57:14.354Z,80.30
2022-09-15T13:59:24.663Z,80.48
2022-09-15T14:01:26.869Z,80.09
2022-09-15T14:03:43.534Z,79.45
2022-09-15T14:05:45.548Z,79.92
2022-09-15T14:07:59.124Z,80.23
2022-09-15T14:10:02.867Z,79.50
2022-09-15T14:12:14.950Z,79.53
2022-09-15T14:14:28.455Z,79.14
2022-09-15T14:16:36.864Z,79.09
2022-09-15T14:18:44.305Z,79.45
2022-09-15T14:20:58.352Z,79.88
2022-09-15T14:23:00.484Z,80.28
2022-09-15T14:25:16.602Z,80.82
2022-09-15T14:27:24.807Z,81.85
2022-09-15T14:29:27.140Z,81.72
2022-09-15T14:31:35.632Z,80.50
2022-09-15T14:33:40.394Z,80.81
2022-09-15T14:35:42.005Z,79.91
2022-09-15T14:37:49.387Z,79.48
2022-09-15T14:40:00.216Z,79.64
2022-09-15T14:42:21.151Z,79.98
2022-09-15T14:46:59.117Z,81.33
2022-09-15T14:49:14.072Z,80.95
2022-09-15T14:51:25.108Z,80.25
2022-09-15T14:53:28.164Z,79.04
2022-09-15T14:56:04.322Z,78.25
2022-09-15T14:58:29.392Z,77.89
2022-09-15T15:00:52.565Z,78.23
2022-09-15T15:03:14.862Z,77.83
2022-09-15T15:05:35.662Z,78.53
2022-09-15T15:07:39.052Z,79.15
2022-09-15T15:09:48.099Z,79.01
2022-09-15T15:11:57.634Z,78.10
2022-09-15T15:13:59.734Z,77.73
2022-09-15T15:16:01.433Z,78.08
2022-09-15T15:18:05.996Z,77.06
2022-09-15T15:20:10.403Z,76.83
2022-09-15T15:22:11.907Z,76.91
2022-09-15T15:24:13.337Z,76.65
2022-09-15T15:26:29.798Z,76.33
2022-09-15T15:28:37.108Z,76.12
2022-09-15T15:30:46.785Z,76.38
2022-09-15T15:32:48.284Z,76.37
2022-09-15T15:34:55.907Z,76.04
2022-09-15T15:37:06.470Z,75.61
2022-09-15T15:39:19.181Z,75.05
2022-09-15T15:41:24.591Z,74.62
2022-09-15T15:43:27.206Z,75.11
2022-09-15T15:45:31.335Z,75.19
2022-09-15T15:47:36.810Z,75.12
2022-09-15T15:49:46.298Z,75.78
2022-09-15T15:51:59.497Z,75.28
2022-09-15T15:54:00.961Z,74.90
2022-09-15T15:56:02.636Z,73.34
2022-09-15T15:58:05.094Z,72.87
2022-09-15T16:00:47.815Z,72.83
2022-09-15T16:02:51.070Z,73.51
2022-09-15T16:04:52.650Z,71.66
2022-09-15T16:06:54.167Z,71.82
2022-09-15T16:08:58.254Z,72.48
2022-09-15T16:11:03.036Z,71.64
2022-09-15T16:13:04.534Z,71.29
2022-09-15T16:15:15.782Z,71.63
2022-09-15T16:17:17.199Z,71.86
2022-09-15T16:19:18.629Z,72.24
2022-09-15T16:21:36.860Z,72.73
2022-09-15T16:23:38.601Z,73.69
2022-09-15T16:25:49.099Z,75.01
2022-09-15T16:27:50.610Z,75.61
2022-09-15T16:29:52.090Z,76.79
2022-09-15T16:31:53.771Z,77.48
2022-09-15T16:33:55.222Z,78.66
2022-09-15T16:36:08.355Z,79.36
2022-09-15T16:38:09.857Z,79.89
2022-09-15T16:40:11.419Z,80.55
2022-09-15T16:42:12.913Z,80.67
2022-09-15T16:44:19.836Z,81.22
2022-09-15T16:46:21.708Z,80.96
2022-09-15T16:48:23.258Z,81.11
2022-09-15T16:50:25.230Z,81.04
2022-09-15T16:52:26.648Z,81.01
2022-09-15T16:54:28.140Z,80.63
2022-09-15T16:56:29.589Z,80.52
2022-09-15T16:58:31.215Z,81.01
2022-09-15T17:00:37.287Z,80.62
2022-09-15T17:02:38.830Z,80.80
2022-09-15T17:04:40.288Z,81.15
2022-09-15T17:06:42.281Z,81.19
2022-09-15T17:08:44.505Z,81.19
2022-09-15T17:10:47.104Z,81.39
2022-09-15T17:12:49.038Z,81.58
2022-09-15T17:14:50.468Z,81.94
2022-09-15T17:16:52.953Z,82.13
2022-09-15T17:18:54.387Z,81.85
2022-09-15T17:20:56.813Z,82.60
2022-09-15T17:22:58.309Z,82.52
2022-09-15T17:25:00.922Z,82.48
2022-09-15T17:27:02.350Z,83.06
2022-09-15T17:29:03.816Z,83.44
2022-09-15T17:31:07.164Z,83.60
2022-09-15T17:33:13.502Z,83.88
2022-09-15T17:35:17.212Z,83.92
2022-09-15T17:37:18.659Z,84.56
2022-09-15T17:39:21.139Z,84.32
2022-09-15T17:41:22.841Z,84.72
2022-09-15T17:43:26.608Z,84.53
2022-09-15T17:45:32.389Z,85.04
2022-09-15T17:47:34.221Z,85.33
2022-09-15T17:49:35.641Z,85.39
2022-09-15T17:51:37.086Z,85.35
2022-09-15T17:53:38.698Z,85.55
2022-09-15T17:55:40.690Z,85.75
2022-09-15T17:57:42.207Z,85.49
2022-09-15T17:59:43.620Z,85.55
2022-09-15T18:01:45.227Z,85.82
2022-09-15T18:03:46.832Z,85.66
2022-09-15T18:05:48.636Z,86.03
2022-09-15T18:07:51.710Z,86.43
2022-09-15T18:09:53.188Z,86.41
2022-09-15T18:14:00.938Z,86.71
2022-09-15T18:16:10.136Z,86.80
2022-09-15T18:18:21.193Z,86.77
2022-09-15T18:20:25.056Z,87.15
2022-09-15T18:22:26.479Z,86.99
2022-09-15T18:24:28.487Z,87.53
2022-09-15T18:26:30.063Z,87.48
2022-09-15T18:28:31.598Z,87.63
2022-09-15T18:30:40.681Z,87.82
2022-09-15T18:32:42.441Z,87.50
2022-09-15T18:34:43.930Z,87.60
2022-09-15T18:36:45.360Z,87.45
2022-09-15T18:38:46.820Z,87.64
2022-09-15T18:40:53.168Z,87.70
2022-09-15T18:42:56.481Z,87.93
2022-09-15T18:44:57.937Z,87.47
2022-09-15T18:47:00.121Z,87.51
2022-09-15T18:49:03.017Z,87.38
2022-09-15T18:51:08.236Z,87.34
2022-09-15T18:53:10.321Z,87.35
2022-09-15T18:55:15.224Z,86.96
2022-09-15T18:57:16.843Z,86.97
2022-09-15T18:59:18.346Z,86.53
2022-09-15T19:01:20.434Z,87.16
2022-09-15T19:03:21.938Z,87.14
2022-09-15T19:05:23.808Z,86.71
2022-09-15T19:07:28.393Z,86.70
2022-09-15T19:09:30.555Z,86.44
2022-09-15T19:11:32.060Z,86.30
2022-09-15T19:13:35.577Z,86.35
2022-09-15T19:15:39.505Z,86.61
2022-09-15T19:17:41.971Z,86.45
2022-09-15T19:19:43.503Z,86.50
2022-09-15T19:21:44.976Z,86.10
2022-09-15T19:23:46.417Z,86.53
2022-09-15T19:25:47.832Z,86.55
2022-09-15T19:27:49.301Z,86.61
2022-09-15T19:29:50.776Z,86.45
2022-09-15T19:31:52.210Z,86.23
2022-09-15T19:33:53.737Z,86.17
2022-09-15T19:36:05.231Z,86.50
2022-09-15T19:38:16.648Z,86.12
2022-09-15T19:40:18.213Z,86.59
2022-09-15T19:42:19.717Z,86.27
2022-09-15T19:44:21.182Z,86.51
2022-09-15T19:46:24.966Z,87.06
2022-09-15T19:48:26.913Z,86.96
2022-09-15T19:50:28.435Z,87.36
2022-09-15T19:52:29.872Z,87.55
2022-09-15T19:54:31.330Z,87.71
2022-09-15T19:56:32.989Z,87.53
2022-09-15T19:58:34.442Z,87.71
2022-09-15T20:00:35.868Z,88.24
2022-09-15T20:02:37.484Z,88.18
2022-09-15T20:04:40.132Z,88.00
2022-09-15T20:06:42.098Z,88.38
2022-09-15T20:08:45.531Z,87.84
2022-09-15T20:10:48.548Z,87.63
2022-09-15T20:12:50.006Z,87.94
2022-09-15T20:14:51.858Z,87.79
2022-09-15T20:16:55.147Z,87.81
2022-09-15T20:18:58.938Z,87.47
2022-09-15T20:21:03.336Z,87.54
2022-09-15T20:23:05.102Z,87.57
2022-09-15T20:25:06.778Z,87.75
2022-09-15T20:27:08.918Z,87.75
2022-09-15T20:29:10.787Z,88.00
2022-09-15T20:31:16.084Z,87.55
2022-09-15T20:33:17.571Z,87.89
2022-09-15T20:35:19.003Z,87.65
2022-09-15T20:37:22.227Z,87.75
2022-09-15T20:39:24.327Z,87.96
2022-09-15T20:41:27.224Z,87.76
2022-09-15T20:43:28.718Z,88.06
2022-09-15T20:45:32.831Z,87.63
2022-09-15T20:47:37.955Z,87.58
2022-09-15T20:49:39.412Z,87.77
2022-09-15T20:51:40.972Z,88.14
2022-09-15T20:53:47.880Z,87.70
2022-09-15T20:55:50.429Z,88.02
2022-09-15T20:57:51.888Z,87.84
2022-09-15T20:59:53.335Z,87.86
2022-09-15T21:01:54.940Z,87.78
2022-09-15T21:03:56.496Z,87.59
2022-09-15T21:06:00.422Z,87.42
2022-09-15T21:08:02.102Z,87.17
2022-09-15T21:10:03.643Z,86.49
2022-09-15T21:12:05.790Z,86.50
2022-09-15T21:14:07.552Z,86.72
2022-09-15T21:16:11.866Z,86.69
2022-09-15T21:18:13.349Z,86.56
2022-09-15T21:20:15.166Z,86.25
2022-09-15T21:22:16.585Z,86.24
2022-09-15T21:24:18.017Z,86.38
2022-09-15T21:26:21.660Z,86.39
2022-09-15T21:28:23.148Z,86.75
2022-09-15T21:30:24.581Z,86.77
2022-09-15T21:32:26.033Z,87.00
2022-09-15T21:34:28.453Z,86.67
2022-09-15T21:36:31.142Z,86.65
2022-09-15T21:38:37.373Z,87.07
2022-09-15T21:40:38.789Z,87.13
2022-09-15T21:42:40.193Z,86.83
2022-09-15T21:44:41.720Z,86.65
2022-09-15T21:46:44.861Z,86.88
2022-09-15T21:48:47.461Z,86.93
2022-09-15T21:50:52.954Z,87.06
2022-09-15T21:52:54.717Z,86.64
2022-09-15T21:54:56.154Z,87.15
2022-09-15T21:56:58.037Z,87.17
2022-09-15T21:59:01.589Z,87.22
2022-09-15T22:01:20.938Z,87.18
2022-09-15T22:03:22.448Z,87.50
2022-09-15T22:05:23.878Z,87.52
2022-09-15T22:07:25.345Z,86.99
2022-09-15T22:09:26.758Z,87.55
2022-09-15T22:11:28.723Z,87.74
2022-09-15T22:13:30.231Z,87.39
2022-09-15T22:15:32.446Z,87.83
2022-09-15T22:17:33.889Z,88.03
2022-09-15T22:19:35.399Z,88.00
2022-09-15T22:21:41.488Z,88.02
2022-09-15T22:23:44.331Z,88.23
2022-09-15T22:25:45.810Z,88.49
2022-09-15T22:27:47.254Z,88.34
2022-09-15T22:29:48.766Z,88.39
2022-09-15T22:31:50.302Z,88.63
2022-09-15T22:33:52.641Z,88.94
2022-09-15T22:35:54.474Z,88.65
2022-09-15T22:37:55.931Z,88.74
2022-09-15T22:39:59.289Z,88.71
2022-09-15T22:42:00.996Z,88.73
2022-09-15T22:44:03.536Z,88.68
2022-09-15T22:46:06.032Z,88.74
2022-09-15T22:48:07.624Z,88.88
2022-09-15T22:50:09.265Z,88.63
2022-09-15T22:52:11.003Z,88.84
2022-09-15T22:54:12.485Z,88.37
2022-09-15T22:56:19.704Z,88.62
2022-09-15T22:58:21.270Z,88.53
2022-09-15T23:00:23.358Z,88.65
2022-09-15T23:02:24.890Z,88.40
2022-09-15T23:04:26.510Z,88.55
2022-09-15T23:06:31.085Z,88.50
2022-09-15T23:08:33.743Z,88.76
2022-09-15T23:10:35.232Z,88.48
2022-09-15T23:12:36.665Z,88.43
2022-09-15T23:14:38.133Z,88.57
2022-09-15T23:16:40.089Z,88.54
2022-09-15T23:18:41.733Z,88.57
2022-09-15T23:20:44.754Z,88.50
2022-09-15T23:22:46.233Z,88.56
2022-09-15T23:24:48.056Z,88.74
2022-09-15T23:26:49.651Z,88.68
2022-09-15T23:28:51.191Z,88.80
2022-09-15T23:30:54.513Z,88.95
2022-09-15T23:32:56.006Z,89.05
2022-09-15T23:34:57.455Z,89.17
2022-09-15T23:36:59.032Z,89.11
2022-09-15T23:39:00.502Z,89.04
2022-09-15T23:41:02.091Z,89.28
2022-09-15T23:43:03.536Z,89.04
2022-09-15T23:45:05.557Z,89.21
2022-09-15T23:47:07.134Z,89.15
2022-09-15T23:49:08.707Z,89.25
2022-09-15T23:51:10.301Z,89.28
2022-09-15T23:53:12.379Z,89.45
2022-09-15T23:55:13.854Z,89.26
2022-09-15T23:57:15.289Z,89.40
2022-09-15T23:59:16.755Z,89.39
